sensor_id;sensor_type;location;lat;lon;timestamp;P1;durP1;ratioP1;P2;durP2;ratioP2
24157;SDS011;12316;50.904;4.200;2023-03-04T00:01:12;26.15;;;16.42;;
24157;SDS011;12316;50.904;4.200;2023-03-04T00:03:38;28.77;;;16.40;;
24157;SDS011;12316;50.904;4.200;2023-03-04T00:06:04;36.25;;;18.85;;
24157;SDS011;12316;50.904;4.200;2023-03-04T00:08:31;24.77;;;17.15;;
24157;SDS011;12316;50.904;4.200;2023-03-04T00:10:56;33.97;;;18.92;;
24157;SDS011;12316;50.904;4.200;2023-03-04T00:13:22;31.92;;;19.90;;
24157;SDS011;12316;50.904;4.200;2023-03-04T00:15:49;32.72;;;18.58;;
24157;SDS011;12316;50.904;4.200;2023-03-04T00:18:14;37.60;;;22.55;;
24157;SDS011;12316;50.904;4.200;2023-03-04T00:20:40;31.38;;;21.98;;
24157;SDS011;12316;50.904;4.200;2023-03-04T00:23:06;36.58;;;22.02;;
24157;SDS011;12316;50.904;4.200;2023-03-04T00:25:32;34.30;;;21.83;;
24157;SDS011;12316;50.904;4.200;2023-03-04T00:27:57;35.47;;;22.42;;
24157;SDS011;12316;50.904;4.200;2023-03-04T00:30:24;33.67;;;21.48;;
24157;SDS011;12316;50.904;4.200;2023-03-04T00:32:50;37.60;;;21.77;;
24157;SDS011;12316;50.904;4.200;2023-03-04T00:35:16;30.85;;;21.48;;
24157;SDS011;12316;50.904;4.200;2023-03-04T00:37:42;36.38;;;21.00;;
24157;SDS011;12316;50.904;4.200;2023-03-04T00:40:07;36.53;;;21.52;;
24157;SDS011;12316;50.904;4.200;2023-03-04T00:42:34;33.88;;;21.52;;
24157;SDS011;12316;50.904;4.200;2023-03-04T00:44:59;35.35;;;22.25;;
24157;SDS011;12316;50.904;4.200;2023-03-04T00:47:25;35.35;;;20.70;;
24157;SDS011;12316;50.904;4.200;2023-03-04T00:49:51;33.70;;;21.15;;
24157;SDS011;12316;50.904;4.200;2023-03-04T00:52:16;37.85;;;21.75;;
24157;SDS011;12316;50.904;4.200;2023-03-04T00:54:42;33.33;;;21.48;;
24157;SDS011;12316;50.904;4.200;2023-03-04T00:57:07;31.40;;;18.88;;
24157;SDS011;12316;50.904;4.200;2023-03-04T00:59:33;32.60;;;19.77;;
24157;SDS011;12316;50.904;4.200;2023-03-04T01:01:59;34.33;;;18.98;;
24157;SDS011;12316;50.904;4.200;2023-03-04T01:04:24;31.45;;;18.25;;
24157;SDS011;12316;50.904;4.200;2023-03-04T01:06:50;29.65;;;17.70;;
24157;SDS011;12316;50.904;4.200;2023-03-04T01:09:15;33.25;;;19.25;;
24157;SDS011;12316;50.904;4.200;2023-03-04T01:11:41;29.33;;;18.08;;
24157;SDS011;12316;50.904;4.200;2023-03-04T01:14:07;28.05;;;18.60;;
24157;SDS011;12316;50.904;4.200;2023-03-04T01:16:33;28.65;;;18.75;;
24157;SDS011;12316;50.904;4.200;2023-03-04T01:18:59;31.45;;;19.17;;
24157;SDS011;12316;50.904;4.200;2023-03-04T01:21:25;27.33;;;17.88;;
24157;SDS011;12316;50.904;4.200;2023-03-04T01:23:50;30.95;;;18.50;;
24157;SDS011;12316;50.904;4.200;2023-03-04T01:26:16;32.22;;;17.48;;
24157;SDS011;12316;50.904;4.200;2023-03-04T01:28:41;26.42;;;16.23;;
24157;SDS011;12316;50.904;4.200;2023-03-04T01:31:07;24.65;;;16.27;;
24157;SDS011;12316;50.904;4.200;2023-03-04T01:33:33;26.98;;;15.18;;
24157;SDS011;12316;50.904;4.200;2023-03-04T01:35:58;25.58;;;14.63;;
24157;SDS011;12316;50.904;4.200;2023-03-04T01:38:24;25.25;;;15.05;;
24157;SDS011;12316;50.904;4.200;2023-03-04T01:40:50;25.55;;;15.20;;
24157;SDS011;12316;50.904;4.200;2023-03-04T01:43:20;22.60;;;14.77;;
24157;SDS011;12316;50.904;4.200;2023-03-04T01:45:48;21.50;;;15.85;;
24157;SDS011;12316;50.904;4.200;2023-03-04T01:48:17;20.90;;;15.70;;
24157;SDS011;12316;50.904;4.200;2023-03-04T01:50:46;25.42;;;14.75;;
24157;SDS011;12316;50.904;4.200;2023-03-04T01:53:25;26.38;;;14.98;;
24157;SDS011;12316;50.904;4.200;2023-03-04T01:55:53;29.25;;;13.25;;
24157;SDS011;12316;50.904;4.200;2023-03-04T01:58:29;31.63;;;12.57;;
24157;SDS011;12316;50.904;4.200;2023-03-04T02:00:56;30.85;;;13.05;;
24157;SDS011;12316;50.904;4.200;2023-03-04T02:03:22;25.52;;;12.80;;
24157;SDS011;12316;50.904;4.200;2023-03-04T02:05:49;22.23;;;12.30;;
24157;SDS011;12316;50.904;4.200;2023-03-04T02:08:18;20.25;;;13.02;;
24157;SDS011;12316;50.904;4.200;2023-03-04T02:10:45;21.83;;;11.95;;
24157;SDS011;12316;50.904;4.200;2023-03-04T02:13:12;25.48;;;11.68;;
24157;SDS011;12316;50.904;4.200;2023-03-04T02:15:38;23.42;;;13.38;;
24157;SDS011;12316;50.904;4.200;2023-03-04T02:18:19;20.85;;;10.90;;
24157;SDS011;12316;50.904;4.200;2023-03-04T02:23:37;25.70;;;11.63;;
24157;SDS011;12316;50.904;4.200;2023-03-04T02:28:42;21.50;;;9.27;;
24157;SDS011;12316;50.904;4.200;2023-03-04T02:31:22;18.05;;;9.98;;
24157;SDS011;12316;50.904;4.200;2023-03-04T02:33:56;16.83;;;9.98;;
24157;SDS011;12316;50.904;4.200;2023-03-04T02:36:24;21.95;;;9.32;;
24157;SDS011;12316;50.904;4.200;2023-03-04T02:38:50;22.23;;;8.30;;
24157;SDS011;12316;50.904;4.200;2023-03-04T02:41:18;17.35;;;8.20;;
24157;SDS011;12316;50.904;4.200;2023-03-04T02:43:48;18.95;;;8.65;;
24157;SDS011;12316;50.904;4.200;2023-03-04T02:46:19;17.33;;;6.93;;
24157;SDS011;12316;50.904;4.200;2023-03-04T02:48:45;20.83;;;6.80;;
24157;SDS011;12316;50.904;4.200;2023-03-04T02:51:11;16.17;;;7.68;;
24157;SDS011;12316;50.904;4.200;2023-03-04T02:53:36;18.88;;;7.40;;
24157;SDS011;12316;50.904;4.200;2023-03-04T02:56:03;26.10;;;7.95;;
24157;SDS011;12316;50.904;4.200;2023-03-04T02:58:29;24.75;;;7.45;;
24157;SDS011;12316;50.904;4.200;2023-03-04T03:00:55;25.42;;;7.65;;
24157;SDS011;12316;50.904;4.200;2023-03-04T03:03:21;16.95;;;7.28;;
24157;SDS011;12316;50.904;4.200;2023-03-04T03:05:46;23.30;;;7.45;;
24157;SDS011;12316;50.904;4.200;2023-03-04T03:08:12;23.92;;;7.80;;
24157;SDS011;12316;50.904;4.200;2023-03-04T03:10:37;20.95;;;7.55;;
24157;SDS011;12316;50.904;4.200;2023-03-04T03:13:03;20.60;;;7.80;;
24157;SDS011;12316;50.904;4.200;2023-03-04T03:15:28;24.00;;;8.43;;
24157;SDS011;12316;50.904;4.200;2023-03-04T03:17:54;24.67;;;8.85;;
24157;SDS011;12316;50.904;4.200;2023-03-04T03:20:20;22.67;;;8.82;;
24157;SDS011;12316;50.904;4.200;2023-03-04T03:22:46;22.52;;;8.32;;
24157;SDS011;12316;50.904;4.200;2023-03-04T03:25:13;17.55;;;8.10;;
24157;SDS011;12316;50.904;4.200;2023-03-04T03:27:40;21.70;;;8.25;;
24157;SDS011;12316;50.904;4.200;2023-03-04T03:30:06;25.08;;;8.18;;
24157;SDS011;12316;50.904;4.200;2023-03-04T03:32:33;24.08;;;8.27;;
24157;SDS011;12316;50.904;4.200;2023-03-04T03:34:58;22.40;;;7.82;;
24157;SDS011;12316;50.904;4.200;2023-03-04T03:37:24;21.42;;;8.30;;
24157;SDS011;12316;50.904;4.200;2023-03-04T03:39:49;28.02;;;9.07;;
24157;SDS011;12316;50.904;4.200;2023-03-04T03:42:15;32.05;;;8.85;;
24157;SDS011;12316;50.904;4.200;2023-03-04T03:44:41;20.45;;;8.90;;
24157;SDS011;12316;50.904;4.200;2023-03-04T03:47:07;22.45;;;8.77;;
24157;SDS011;12316;50.904;4.200;2023-03-04T03:49:33;22.52;;;9.25;;
24157;SDS011;12316;50.904;4.200;2023-03-04T03:51:58;21.73;;;10.23;;
24157;SDS011;12316;50.904;4.200;2023-03-04T03:54:24;26.17;;;9.32;;
24157;SDS011;12316;50.904;4.200;2023-03-04T03:56:51;24.63;;;9.63;;
24157;SDS011;12316;50.904;4.200;2023-03-04T03:59:16;28.25;;;9.88;;
24157;SDS011;12316;50.904;4.200;2023-03-04T04:01:42;22.27;;;9.45;;
24157;SDS011;12316;50.904;4.200;2023-03-04T04:04:07;22.15;;;9.00;;
24157;SDS011;12316;50.904;4.200;2023-03-04T04:06:34;19.95;;;9.57;;
24157;SDS011;12316;50.904;4.200;2023-03-04T04:09:00;24.10;;;9.30;;
24157;SDS011;12316;50.904;4.200;2023-03-04T04:11:25;22.60;;;10.07;;
24157;SDS011;12316;50.904;4.200;2023-03-04T04:13:52;23.58;;;9.05;;
24157;SDS011;12316;50.904;4.200;2023-03-04T04:16:17;18.80;;;8.65;;
24157;SDS011;12316;50.904;4.200;2023-03-04T04:18:43;27.30;;;10.00;;
24157;SDS011;12316;50.904;4.200;2023-03-04T04:21:08;25.88;;;9.80;;
24157;SDS011;12316;50.904;4.200;2023-03-04T04:23:34;18.00;;;8.90;;
24157;SDS011;12316;50.904;4.200;2023-03-04T04:26:00;19.60;;;9.40;;
24157;SDS011;12316;50.904;4.200;2023-03-04T04:28:25;22.20;;;9.60;;
24157;SDS011;12316;50.904;4.200;2023-03-04T04:30:51;23.23;;;9.95;;
24157;SDS011;12316;50.904;4.200;2023-03-04T04:33:17;22.27;;;9.70;;
24157;SDS011;12316;50.904;4.200;2023-03-04T04:35:43;23.70;;;10.00;;
24157;SDS011;12316;50.904;4.200;2023-03-04T04:38:09;18.10;;;9.75;;
24157;SDS011;12316;50.904;4.200;2023-03-04T04:40:35;27.95;;;10.73;;
24157;SDS011;12316;50.904;4.200;2023-03-04T04:43:01;22.15;;;9.90;;
24157;SDS011;12316;50.904;4.200;2023-03-04T04:45:28;24.00;;;10.60;;
24157;SDS011;12316;50.904;4.200;2023-03-04T04:47:54;27.52;;;10.68;;
24157;SDS011;12316;50.904;4.200;2023-03-04T04:50:21;25.30;;;10.15;;
24157;SDS011;12316;50.904;4.200;2023-03-04T04:52:48;24.02;;;10.30;;
24157;SDS011;12316;50.904;4.200;2023-03-04T04:55:14;20.33;;;10.60;;
24157;SDS011;12316;50.904;4.200;2023-03-04T04:57:39;26.83;;;11.18;;
24157;SDS011;12316;50.904;4.200;2023-03-04T05:00:05;24.88;;;10.95;;
24157;SDS011;12316;50.904;4.200;2023-03-04T05:02:33;24.35;;;10.13;;
24157;SDS011;12316;50.904;4.200;2023-03-04T05:05:02;29.33;;;11.15;;
24157;SDS011;12316;50.904;4.200;2023-03-04T05:07:28;25.98;;;10.95;;
24157;SDS011;12316;50.904;4.200;2023-03-04T05:09:54;25.95;;;11.25;;
24157;SDS011;12316;50.904;4.200;2023-03-04T05:12:20;21.80;;;10.70;;
24157;SDS011;12316;50.904;4.200;2023-03-04T05:14:45;24.35;;;11.15;;
24157;SDS011;12316;50.904;4.200;2023-03-04T05:17:11;26.05;;;10.73;;
24157;SDS011;12316;50.904;4.200;2023-03-04T05:19:37;25.15;;;10.73;;
24157;SDS011;12316;50.904;4.200;2023-03-04T05:22:02;22.48;;;11.20;;
24157;SDS011;12316;50.904;4.200;2023-03-04T05:24:28;22.63;;;9.45;;
24157;SDS011;12316;50.904;4.200;2023-03-04T05:26:53;24.95;;;10.60;;
24157;SDS011;12316;50.904;4.200;2023-03-04T05:29:19;23.08;;;10.10;;
24157;SDS011;12316;50.904;4.200;2023-03-04T05:31:45;24.85;;;10.40;;
24157;SDS011;12316;50.904;4.200;2023-03-04T05:34:10;20.30;;;10.10;;
24157;SDS011;12316;50.904;4.200;2023-03-04T05:36:36;23.58;;;10.40;;
24157;SDS011;12316;50.904;4.200;2023-03-04T05:39:02;25.10;;;10.27;;
24157;SDS011;12316;50.904;4.200;2023-03-04T05:41:27;24.85;;;10.05;;
24157;SDS011;12316;50.904;4.200;2023-03-04T05:43:53;22.88;;;9.75;;
24157;SDS011;12316;50.904;4.200;2023-03-04T05:46:20;23.30;;;9.88;;
24157;SDS011;12316;50.904;4.200;2023-03-04T05:48:50;21.27;;;9.60;;
24157;SDS011;12316;50.904;4.200;2023-03-04T05:51:17;16.60;;;8.77;;
24157;SDS011;12316;50.904;4.200;2023-03-04T05:53:43;16.83;;;8.85;;
24157;SDS011;12316;50.904;4.200;2023-03-04T05:56:09;19.08;;;8.80;;
24157;SDS011;12316;50.904;4.200;2023-03-04T05:58:36;27.58;;;9.27;;
24157;SDS011;12316;50.904;4.200;2023-03-04T06:01:02;19.35;;;8.25;;
24157;SDS011;12316;50.904;4.200;2023-03-04T06:03:29;20.15;;;8.35;;
24157;SDS011;12316;50.904;4.200;2023-03-04T06:05:54;19.60;;;8.02;;
24157;SDS011;12316;50.904;4.200;2023-03-04T06:08:21;16.05;;;7.53;;
24157;SDS011;12316;50.904;4.200;2023-03-04T06:10:51;20.48;;;7.75;;
24157;SDS011;12316;50.904;4.200;2023-03-04T06:13:18;16.88;;;8.10;;
24157;SDS011;12316;50.904;4.200;2023-03-04T06:15:44;24.92;;;7.38;;
24157;SDS011;12316;50.904;4.200;2023-03-04T06:18:10;15.40;;;6.50;;
24157;SDS011;12316;50.904;4.200;2023-03-04T06:20:36;18.35;;;7.00;;
24157;SDS011;12316;50.904;4.200;2023-03-04T06:23:02;16.27;;;6.93;;
24157;SDS011;12316;50.904;4.200;2023-03-04T06:25:30;16.38;;;6.38;;
24157;SDS011;12316;50.904;4.200;2023-03-04T06:27:56;14.40;;;5.72;;
24157;SDS011;12316;50.904;4.200;2023-03-04T06:30:22;16.73;;;6.57;;
24157;SDS011;12316;50.904;4.200;2023-03-04T06:32:48;13.55;;;6.50;;
24157;SDS011;12316;50.904;4.200;2023-03-04T06:35:14;19.60;;;6.57;;
24157;SDS011;12316;50.904;4.200;2023-03-04T06:37:41;16.65;;;6.15;;
24157;SDS011;12316;50.904;4.200;2023-03-04T06:40:08;18.25;;;6.03;;
24157;SDS011;12316;50.904;4.200;2023-03-04T06:42:34;18.75;;;5.43;;
24157;SDS011;12316;50.904;4.200;2023-03-04T06:45:01;17.58;;;5.20;;
24157;SDS011;12316;50.904;4.200;2023-03-04T06:47:27;14.38;;;4.63;;
24157;SDS011;12316;50.904;4.200;2023-03-04T06:49:54;24.58;;;4.53;;
24157;SDS011;12316;50.904;4.200;2023-03-04T06:52:20;13.48;;;4.78;;
24157;SDS011;12316;50.904;4.200;2023-03-04T06:54:46;12.30;;;4.45;;
24157;SDS011;12316;50.904;4.200;2023-03-04T06:57:12;20.00;;;4.78;;
24157;SDS011;12316;50.904;4.200;2023-03-04T06:59:38;18.50;;;4.72;;
24157;SDS011;12316;50.904;4.200;2023-03-04T07:02:04;20.48;;;4.38;;
24157;SDS011;12316;50.904;4.200;2023-03-04T07:04:30;14.52;;;4.05;;
24157;SDS011;12316;50.904;4.200;2023-03-04T07:06:56;17.65;;;4.55;;
24157;SDS011;12316;50.904;4.200;2023-03-04T07:09:21;11.65;;;3.78;;
24157;SDS011;12316;50.904;4.200;2023-03-04T07:11:47;14.52;;;4.18;;
24157;SDS011;12316;50.904;4.200;2023-03-04T07:14:12;15.68;;;4.68;;
24157;SDS011;12316;50.904;4.200;2023-03-04T07:16:38;16.73;;;4.30;;
24157;SDS011;12316;50.904;4.200;2023-03-04T07:19:04;9.68;;;4.40;;
24157;SDS011;12316;50.904;4.200;2023-03-04T07:21:30;15.57;;;4.72;;
24157;SDS011;12316;50.904;4.200;2023-03-04T07:23:55;14.55;;;5.15;;
24157;SDS011;12316;50.904;4.200;2023-03-04T07:26:21;18.80;;;5.18;;
24157;SDS011;12316;50.904;4.200;2023-03-04T07:28:47;18.13;;;5.05;;
24157;SDS011;12316;50.904;4.200;2023-03-04T07:31:23;12.43;;;4.88;;
24157;SDS011;12316;50.904;4.200;2023-03-04T07:33:58;15.23;;;5.30;;
24157;SDS011;12316;50.904;4.200;2023-03-04T07:36:28;15.98;;;4.55;;
24157;SDS011;12316;50.904;4.200;2023-03-04T07:38:55;15.23;;;4.30;;
24157;SDS011;12316;50.904;4.200;2023-03-04T07:41:21;15.90;;;5.25;;
24157;SDS011;12316;50.904;4.200;2023-03-04T07:43:48;16.95;;;4.72;;
24157;SDS011;12316;50.904;4.200;2023-03-04T07:46:14;15.80;;;5.07;;
24157;SDS011;12316;50.904;4.200;2023-03-04T07:48:40;16.00;;;4.88;;
24157;SDS011;12316;50.904;4.200;2023-03-04T07:51:08;19.23;;;5.00;;
24157;SDS011;12316;50.904;4.200;2023-03-04T07:53:38;14.02;;;4.72;;
24157;SDS011;12316;50.904;4.200;2023-03-04T07:56:05;20.90;;;4.93;;
24157;SDS011;12316;50.904;4.200;2023-03-04T07:58:32;22.45;;;5.30;;
24157;SDS011;12316;50.904;4.200;2023-03-04T08:00:58;33.78;;;6.93;;
24157;SDS011;12316;50.904;4.200;2023-03-04T08:03:23;30.25;;;6.28;;
24157;SDS011;12316;50.904;4.200;2023-03-04T08:05:49;20.05;;;5.15;;
24157;SDS011;12316;50.904;4.200;2023-03-04T08:08:15;13.43;;;4.55;;
24157;SDS011;12316;50.904;4.200;2023-03-04T08:10:41;13.70;;;4.50;;
24157;SDS011;12316;50.904;4.200;2023-03-04T08:13:07;12.77;;;4.43;;
24157;SDS011;12316;50.904;4.200;2023-03-04T08:15:33;16.05;;;4.10;;
24157;SDS011;12316;50.904;4.200;2023-03-04T08:17:59;18.38;;;4.60;;
24157;SDS011;12316;50.904;4.200;2023-03-04T08:20:26;14.75;;;4.13;;
24157;SDS011;12316;50.904;4.200;2023-03-04T08:22:52;18.35;;;4.60;;
24157;SDS011;12316;50.904;4.200;2023-03-04T08:25:17;23.48;;;4.78;;
24157;SDS011;12316;50.904;4.200;2023-03-04T08:27:43;16.52;;;4.18;;
24157;SDS011;12316;50.904;4.200;2023-03-04T08:30:09;12.10;;;4.13;;
24157;SDS011;12316;50.904;4.200;2023-03-04T08:32:35;17.58;;;4.70;;
24157;SDS011;12316;50.904;4.200;2023-03-04T08:35:00;11.23;;;4.13;;
24157;SDS011;12316;50.904;4.200;2023-03-04T08:37:27;10.23;;;4.05;;
24157;SDS011;12316;50.904;4.200;2023-03-04T08:39:53;12.82;;;4.30;;
24157;SDS011;12316;50.904;4.200;2023-03-04T08:42:19;12.18;;;4.32;;
24157;SDS011;12316;50.904;4.200;2023-03-04T08:44:44;17.17;;;4.88;;
24157;SDS011;12316;50.904;4.200;2023-03-04T08:47:10;14.75;;;4.05;;
24157;SDS011;12316;50.904;4.200;2023-03-04T08:49:36;11.98;;;4.18;;
24157;SDS011;12316;50.904;4.200;2023-03-04T08:52:02;13.05;;;4.45;;
24157;SDS011;12316;50.904;4.200;2023-03-04T08:54:28;15.10;;;4.65;;
24157;SDS011;12316;50.904;4.200;2023-03-04T08:56:54;13.02;;;4.03;;
24157;SDS011;12316;50.904;4.200;2023-03-04T08:59:19;19.35;;;4.93;;
24157;SDS011;12316;50.904;4.200;2023-03-04T09:01:45;12.27;;;4.32;;
24157;SDS011;12316;50.904;4.200;2023-03-04T09:04:11;15.23;;;4.95;;
24157;SDS011;12316;50.904;4.200;2023-03-04T09:06:38;15.80;;;4.45;;
24157;SDS011;12316;50.904;4.200;2023-03-04T09:09:04;13.45;;;4.70;;
24157;SDS011;12316;50.904;4.200;2023-03-04T09:11:29;14.55;;;4.53;;
24157;SDS011;12316;50.904;4.200;2023-03-04T09:13:55;13.02;;;5.00;;
24157;SDS011;12316;50.904;4.200;2023-03-04T09:16:21;12.15;;;5.45;;
24157;SDS011;12316;50.904;4.200;2023-03-04T09:18:46;15.18;;;5.15;;
24157;SDS011;12316;50.904;4.200;2023-03-04T09:21:12;14.25;;;5.32;;
24157;SDS011;12316;50.904;4.200;2023-03-04T09:23:38;13.63;;;5.95;;
24157;SDS011;12316;50.904;4.200;2023-03-04T09:26:18;12.48;;;5.70;;
24157;SDS011;12316;50.904;4.200;2023-03-04T09:28:54;13.18;;;5.85;;
24157;SDS011;12316;50.904;4.200;2023-03-04T09:31:21;15.45;;;5.63;;
24157;SDS011;12316;50.904;4.200;2023-03-04T09:33:48;14.50;;;5.90;;
24157;SDS011;12316;50.904;4.200;2023-03-04T09:36:13;19.40;;;5.90;;
24157;SDS011;12316;50.904;4.200;2023-03-04T09:38:40;17.63;;;6.28;;
24157;SDS011;12316;50.904;4.200;2023-03-04T09:41:07;16.98;;;5.57;;
24157;SDS011;12316;50.904;4.200;2023-03-04T09:43:40;17.65;;;5.65;;
24157;SDS011;12316;50.904;4.200;2023-03-04T09:46:16;13.88;;;5.25;;
24157;SDS011;12316;50.904;4.200;2023-03-04T09:48:51;14.93;;;4.97;;
24157;SDS011;12316;50.904;4.200;2023-03-04T09:56:34;19.90;;;4.75;;
24157;SDS011;12316;50.904;4.200;2023-03-04T10:01:59;14.35;;;4.07;;
24157;SDS011;12316;50.904;4.200;2023-03-04T10:04:41;15.95;;;4.25;;
24157;SDS011;12316;50.904;4.200;2023-03-04T10:07:26;15.40;;;4.47;;
24157;SDS011;12316;50.904;4.200;2023-03-04T10:10:21;9.95;;;4.30;;
24157;SDS011;12316;50.904;4.200;2023-03-04T10:12:48;7.55;;;3.90;;
24157;SDS011;12316;50.904;4.200;2023-03-04T10:18:18;12.73;;;3.85;;
24157;SDS011;12316;50.904;4.200;2023-03-04T10:21:03;11.18;;;4.45;;
24157;SDS011;12316;50.904;4.200;2023-03-04T10:23:38;14.63;;;4.38;;
24157;SDS011;12316;50.904;4.200;2023-03-04T10:26:12;17.58;;;4.97;;
24157;SDS011;12316;50.904;4.200;2023-03-04T10:28:41;16.30;;;4.90;;
24157;SDS011;12316;50.904;4.200;2023-03-04T10:33:35;15.77;;;4.63;;
24157;SDS011;12316;50.904;4.200;2023-03-04T10:39:01;12.88;;;5.13;;
24157;SDS011;12316;50.904;4.200;2023-03-04T10:41:31;12.25;;;4.95;;
24157;SDS011;12316;50.904;4.200;2023-03-04T10:44:11;12.77;;;4.75;;
24157;SDS011;12316;50.904;4.200;2023-03-04T10:46:47;18.80;;;5.32;;
24157;SDS011;12316;50.904;4.200;2023-03-04T10:49:15;10.45;;;4.80;;
24157;SDS011;12316;50.904;4.200;2023-03-04T10:51:44;13.88;;;4.80;;
24157;SDS011;12316;50.904;4.200;2023-03-04T11:02:34;10.10;;;4.22;;
24157;SDS011;12316;50.904;4.200;2023-03-04T11:07:52;15.38;;;4.72;;
24157;SDS011;12316;50.904;4.200;2023-03-04T11:13:00;9.38;;;4.22;;
24157;SDS011;12316;50.904;4.200;2023-03-04T11:18:29;13.18;;;4.20;;
24157;SDS011;12316;50.904;4.200;2023-03-04T11:21:01;12.65;;;3.97;;
24157;SDS011;12316;50.904;4.200;2023-03-04T11:23:44;11.98;;;3.15;;
24157;SDS011;12316;50.904;4.200;2023-03-04T11:26:27;8.85;;;3.25;;
24157;SDS011;12316;50.904;4.200;2023-03-04T11:32:25;7.97;;;2.60;;
24157;SDS011;12316;50.904;4.200;2023-03-04T11:34:55;8.82;;;3.05;;
24157;SDS011;12316;50.904;4.200;2023-03-04T11:37:25;11.20;;;3.13;;
24157;SDS011;12316;50.904;4.200;2023-03-04T11:40:13;9.15;;;3.47;;
24157;SDS011;12316;50.904;4.200;2023-03-04T11:42:50;11.15;;;3.10;;
24157;SDS011;12316;50.904;4.200;2023-03-04T11:50:51;10.30;;;2.88;;
24157;SDS011;12316;50.904;4.200;2023-03-04T12:10:24;7.95;;;2.50;;
24157;SDS011;12316;50.904;4.200;2023-03-04T12:32:02;10.75;;;2.55;;
24157;SDS011;12316;50.904;4.200;2023-03-04T12:51:02;7.82;;;2.05;;
24157;SDS011;12316;50.904;4.200;2023-03-04T12:59:11;4.80;;;1.70;;
24157;SDS011;12316;50.904;4.200;2023-03-04T13:01:42;4.10;;;1.60;;
24157;SDS011;12316;50.904;4.200;2023-03-04T13:04:18;4.15;;;1.70;;
24157;SDS011;12316;50.904;4.200;2023-03-04T13:12:48;5.07;;;1.85;;
24157;SDS011;12316;50.904;4.200;2023-03-04T13:15:17;3.85;;;1.60;;
24157;SDS011;12316;50.904;4.200;2023-03-04T13:17:51;4.80;;;1.98;;
24157;SDS011;12316;50.904;4.200;2023-03-04T13:22:57;5.28;;;1.45;;
24157;SDS011;12316;50.904;4.200;2023-03-04T13:31:03;4.63;;;1.40;;
24157;SDS011;12316;50.904;4.200;2023-03-04T13:35:54;4.10;;;1.63;;
24157;SDS011;12316;50.904;4.200;2023-03-04T13:43:51;2.55;;;1.38;;
24157;SDS011;12316;50.904;4.200;2023-03-04T13:53:51;2.00;;;0.90;;
24157;SDS011;12316;50.904;4.200;2023-03-04T13:56:23;2.17;;;0.90;;
24157;SDS011;12316;50.904;4.200;2023-03-04T14:06:59;2.30;;;0.90;;
24157;SDS011;12316;50.904;4.200;2023-03-04T14:09:31;3.25;;;1.05;;
24157;SDS011;12316;50.904;4.200;2023-03-04T14:11:59;3.00;;;1.10;;
24157;SDS011;12316;50.904;4.200;2023-03-04T14:14:39;1.42;;;1.25;;
24157;SDS011;12316;50.904;4.200;2023-03-04T14:17:33;4.22;;;1.90;;
24157;SDS011;12316;50.904;4.200;2023-03-04T14:20:04;3.97;;;1.90;;
24157;SDS011;12316;50.904;4.200;2023-03-04T14:22:47;4.18;;;2.00;;
24157;SDS011;12316;50.904;4.200;2023-03-04T14:27:45;2.33;;;1.50;;
24157;SDS011;12316;50.904;4.200;2023-03-04T14:30:24;2.55;;;1.30;;
24157;SDS011;12316;50.904;4.200;2023-03-04T14:32:52;1.73;;;1.10;;
24157;SDS011;12316;50.904;4.200;2023-03-04T14:35:22;2.50;;;1.00;;
24157;SDS011;12316;50.904;4.200;2023-03-04T14:37:59;2.67;;;1.13;;
24157;SDS011;12316;50.904;4.200;2023-03-04T14:40:32;2.95;;;1.38;;
24157;SDS011;12316;50.904;4.200;2023-03-04T14:43:14;1.58;;;1.10;;
24157;SDS011;12316;50.904;4.200;2023-03-04T14:45:48;4.47;;;1.33;;
24157;SDS011;12316;50.904;4.200;2023-03-04T14:48:26;3.72;;;1.38;;
24157;SDS011;12316;50.904;4.200;2023-03-04T14:50:54;3.33;;;1.50;;
24157;SDS011;12316;50.904;4.200;2023-03-04T14:53:22;4.03;;;1.70;;
24157;SDS011;12316;50.904;4.200;2023-03-04T14:58:25;8.43;;;1.90;;
24157;SDS011;12316;50.904;4.200;2023-03-04T15:03:54;3.72;;;1.70;;
24157;SDS011;12316;50.904;4.200;2023-03-04T15:06:23;3.40;;;1.88;;
24157;SDS011;12316;50.904;4.200;2023-03-04T15:09:33;5.30;;;1.50;;
24157;SDS011;12316;50.904;4.200;2023-03-04T15:12:02;2.83;;;1.35;;
24157;SDS011;12316;50.904;4.200;2023-03-04T15:22:34;5.97;;;1.60;;
24157;SDS011;12316;50.904;4.200;2023-03-04T15:25:00;4.57;;;1.70;;
24157;SDS011;12316;50.904;4.200;2023-03-04T15:27:26;6.22;;;1.25;;
24157;SDS011;12316;50.904;4.200;2023-03-04T15:29:54;6.30;;;1.50;;
24157;SDS011;12316;50.904;4.200;2023-03-04T15:32:26;3.97;;;1.52;;
24157;SDS011;12316;50.904;4.200;2023-03-04T15:34:52;5.10;;;1.67;;
24157;SDS011;12316;50.904;4.200;2023-03-04T15:37:22;7.28;;;1.50;;
24157;SDS011;12316;50.904;4.200;2023-03-04T15:39:50;6.53;;;1.55;;
24157;SDS011;12316;50.904;4.200;2023-03-04T15:42:18;5.38;;;1.60;;
24157;SDS011;12316;50.904;4.200;2023-03-04T15:44:44;9.55;;;2.20;;
24157;SDS011;12316;50.904;4.200;2023-03-04T15:47:10;9.00;;;1.88;;
24157;SDS011;12316;50.904;4.200;2023-03-04T15:49:40;6.88;;;1.88;;
24157;SDS011;12316;50.904;4.200;2023-03-04T15:52:11;4.72;;;1.60;;
24157;SDS011;12316;50.904;4.200;2023-03-04T15:54:40;5.10;;;1.60;;
24157;SDS011;12316;50.904;4.200;2023-03-04T15:57:08;5.97;;;1.70;;
24157;SDS011;12316;50.904;4.200;2023-03-04T15:59:45;5.03;;;1.63;;
24157;SDS011;12316;50.904;4.200;2023-03-04T16:02:17;7.13;;;2.22;;
24157;SDS011;12316;50.904;4.200;2023-03-04T16:04:55;7.40;;;2.10;;
24157;SDS011;12316;50.904;4.200;2023-03-04T16:07:22;5.82;;;1.90;;
24157;SDS011;12316;50.904;4.200;2023-03-04T16:09:53;5.60;;;2.28;;
24157;SDS011;12316;50.904;4.200;2023-03-04T16:12:22;7.95;;;2.60;;
24157;SDS011;12316;50.904;4.200;2023-03-04T16:14:50;4.07;;;2.10;;
24157;SDS011;12316;50.904;4.200;2023-03-04T16:17:16;5.15;;;2.13;;
24157;SDS011;12316;50.904;4.200;2023-03-04T16:19:42;10.32;;;2.60;;
24157;SDS011;12316;50.904;4.200;2023-03-04T16:22:12;5.93;;;1.85;;
24157;SDS011;12316;50.904;4.200;2023-03-04T16:24:39;2.03;;;1.42;;
24157;SDS011;12316;50.904;4.200;2023-03-04T16:27:10;6.13;;;1.90;;
24157;SDS011;12316;50.904;4.200;2023-03-04T16:29:38;4.97;;;2.10;;
24157;SDS011;12316;50.904;4.200;2023-03-04T16:32:03;5.25;;;1.70;;
24157;SDS011;12316;50.904;4.200;2023-03-04T16:34:29;7.40;;;2.03;;
24157;SDS011;12316;50.904;4.200;2023-03-04T16:36:57;5.38;;;1.95;;
24157;SDS011;12316;50.904;4.200;2023-03-04T16:39:27;3.90;;;1.98;;
24157;SDS011;12316;50.904;4.200;2023-03-04T16:41:53;4.82;;;2.13;;
24157;SDS011;12316;50.904;4.200;2023-03-04T16:44:19;9.55;;;2.70;;
24157;SDS011;12316;50.904;4.200;2023-03-04T16:46:45;4.53;;;2.53;;
24157;SDS011;12316;50.904;4.200;2023-03-04T16:49:10;6.53;;;2.00;;
24157;SDS011;12316;50.904;4.200;2023-03-04T16:51:40;6.18;;;2.10;;
24157;SDS011;12316;50.904;4.200;2023-03-04T16:54:13;6.95;;;2.65;;
24157;SDS011;12316;50.904;4.200;2023-03-04T16:56:42;5.50;;;2.13;;
24157;SDS011;12316;50.904;4.200;2023-03-04T16:59:10;6.90;;;2.63;;
24157;SDS011;12316;50.904;4.200;2023-03-04T17:01:39;5.63;;;3.28;;
24157;SDS011;12316;50.904;4.200;2023-03-04T17:04:05;7.32;;;2.30;;
24157;SDS011;12316;50.904;4.200;2023-03-04T17:06:31;5.78;;;2.40;;
24157;SDS011;12316;50.904;4.200;2023-03-04T17:08:58;8.18;;;2.20;;
24157;SDS011;12316;50.904;4.200;2023-03-04T17:11:23;7.32;;;2.00;;
24157;SDS011;12316;50.904;4.200;2023-03-04T17:13:49;5.95;;;1.83;;
24157;SDS011;12316;50.904;4.200;2023-03-04T17:16:15;4.55;;;1.60;;
24157;SDS011;12316;50.904;4.200;2023-03-04T17:18:41;7.72;;;1.67;;
24157;SDS011;12316;50.904;4.200;2023-03-04T17:21:10;5.07;;;1.73;;